sensor_id;sensor_type;location;lat;lon;timestamp;P1;durP1;ratioP1;P2;durP2;ratioP2
71046;SDS011;58703;48.978;8.982;2024-03-02T00:00:30;30.80;;;15.02;;
71046;SDS011;58703;48.978;8.982;2024-03-02T00:02:57;52.55;;;21.20;;
71046;SDS011;58703;48.978;8.982;2024-03-02T00:05:23;74.10;;;23.50;;
71046;SDS011;58703;48.978;8.982;2024-03-02T00:07:56;71.63;;;23.10;;
71046;SDS011;58703;48.978;8.982;2024-03-02T00:10:34;29.27;;;15.07;;
71046;SDS011;58703;48.978;8.982;2024-03-02T00:13:11;22.97;;;12.20;;
71046;SDS011;58703;48.978;8.982;2024-03-02T00:15:46;21.45;;;10.90;;
71046;SDS011;58703;48.978;8.982;2024-03-02T00:18:35;27.77;;;15.80;;
71046;SDS011;58703;48.978;8.982;2024-03-02T00:21:01;32.08;;;15.13;;
71046;SDS011;58703;48.978;8.982;2024-03-02T00:23:30;38.75;;;17.15;;
71046;SDS011;58703;48.978;8.982;2024-03-02T00:25:59;37.57;;;17.47;;
71046;SDS011;58703;48.978;8.982;2024-03-02T00:28:29;41.72;;;16.92;;
71046;SDS011;58703;48.978;8.982;2024-03-02T00:31:12;38.13;;;16.52;;
71046;SDS011;58703;48.978;8.982;2024-03-02T00:33:43;37.83;;;17.80;;
71046;SDS011;58703;48.978;8.982;2024-03-02T00:36:20;36.67;;;17.05;;
71046;SDS011;58703;48.978;8.982;2024-03-02T00:38:52;42.43;;;17.47;;
71046;SDS011;58703;48.978;8.982;2024-03-02T00:41:23;39.75;;;16.98;;
71046;SDS011;58703;48.978;8.982;2024-03-02T00:44:02;37.22;;;15.32;;
71046;SDS011;58703;48.978;8.982;2024-03-02T00:46:49;37.80;;;16.38;;
71046;SDS011;58703;48.978;8.982;2024-03-02T00:49:21;33.60;;;14.80;;
71046;SDS011;58703;48.978;8.982;2024-03-02T00:51:48;21.20;;;12.07;;
71046;SDS011;58703;48.978;8.982;2024-03-02T00:54:21;28.50;;;14.13;;
71046;SDS011;58703;48.978;8.982;2024-03-02T00:56:54;24.00;;;12.10;;
71046;SDS011;58703;48.978;8.982;2024-03-02T00:59:23;23.48;;;12.98;;
71046;SDS011;58703;48.978;8.982;2024-03-02T01:01:50;27.10;;;13.98;;
71046;SDS011;58703;48.978;8.982;2024-03-02T01:04:18;27.17;;;13.50;;
71046;SDS011;58703;48.978;8.982;2024-03-02T01:06:43;25.27;;;13.80;;
71046;SDS011;58703;48.978;8.982;2024-03-02T01:09:10;22.63;;;13.80;;
71046;SDS011;58703;48.978;8.982;2024-03-02T01:11:39;22.92;;;13.40;;
71046;SDS011;58703;48.978;8.982;2024-03-02T01:14:05;22.30;;;12.65;;
71046;SDS011;58703;48.978;8.982;2024-03-02T01:16:31;21.57;;;12.33;;
71046;SDS011;58703;48.978;8.982;2024-03-02T01:18:58;25.27;;;13.10;;
71046;SDS011;58703;48.978;8.982;2024-03-02T01:21:25;23.40;;;13.38;;
71046;SDS011;58703;48.978;8.982;2024-03-02T01:23:52;20.85;;;12.77;;
71046;SDS011;58703;48.978;8.982;2024-03-02T01:26:19;22.20;;;13.27;;
71046;SDS011;58703;48.978;8.982;2024-03-02T01:28:45;20.67;;;10.93;;
71046;SDS011;58703;48.978;8.982;2024-03-02T01:31:13;16.83;;;9.82;;
71046;SDS011;58703;48.978;8.982;2024-03-02T01:33:40;15.55;;;9.48;;
71046;SDS011;58703;48.978;8.982;2024-03-02T01:36:05;18.10;;;9.95;;
71046;SDS011;58703;48.978;8.982;2024-03-02T01:38:36;19.73;;;11.07;;
71046;SDS011;58703;48.978;8.982;2024-03-02T01:41:03;22.43;;;11.30;;
71046;SDS011;58703;48.978;8.982;2024-03-02T01:43:30;18.75;;;10.05;;
71046;SDS011;58703;48.978;8.982;2024-03-02T01:45:57;18.20;;;10.90;;
71046;SDS011;58703;48.978;8.982;2024-03-02T01:48:25;19.35;;;10.85;;
71046;SDS011;58703;48.978;8.982;2024-03-02T01:50:52;18.88;;;10.75;;
71046;SDS011;58703;48.978;8.982;2024-03-02T01:53:18;21.23;;;11.53;;
71046;SDS011;58703;48.978;8.982;2024-03-02T01:55:44;22.45;;;12.38;;
71046;SDS011;58703;48.978;8.982;2024-03-02T01:58:12;24.27;;;12.93;;
71046;SDS011;58703;48.978;8.982;2024-03-02T02:00:39;21.35;;;10.95;;
71046;SDS011;58703;48.978;8.982;2024-03-02T02:03:06;20.52;;;11.10;;
71046;SDS011;58703;48.978;8.982;2024-03-02T02:05:33;19.37;;;10.80;;
71046;SDS011;58703;48.978;8.982;2024-03-02T02:08:02;18.40;;;10.43;;
71046;SDS011;58703;48.978;8.982;2024-03-02T02:10:27;28.48;;;14.15;;
71046;SDS011;58703;48.978;8.982;2024-03-02T02:12:54;22.73;;;11.67;;
71046;SDS011;58703;48.978;8.982;2024-03-02T02:15:28;21.20;;;10.88;;
71046;SDS011;58703;48.978;8.982;2024-03-02T02:17:57;17.70;;;10.13;;
71046;SDS011;58703;48.978;8.982;2024-03-02T02:20:25;18.15;;;10.30;;
71046;SDS011;58703;48.978;8.982;2024-03-02T02:22:53;22.00;;;11.43;;
71046;SDS011;58703;48.978;8.982;2024-03-02T02:25:27;21.13;;;10.33;;
71046;SDS011;58703;48.978;8.982;2024-03-02T02:27:54;15.80;;;9.57;;
71046;SDS011;58703;48.978;8.982;2024-03-02T02:30:31;21.48;;;10.20;;
71046;SDS011;58703;48.978;8.982;2024-03-02T02:32:59;20.02;;;10.60;;
71046;SDS011;58703;48.978;8.982;2024-03-02T02:35:26;20.95;;;11.88;;
71046;SDS011;58703;48.978;8.982;2024-03-02T02:37:52;23.50;;;12.00;;
71046;SDS011;58703;48.978;8.982;2024-03-02T02:40:19;20.30;;;10.68;;
71046;SDS011;58703;48.978;8.982;2024-03-02T02:42:46;14.73;;;8.80;;
71046;SDS011;58703;48.978;8.982;2024-03-02T02:45:13;17.10;;;10.03;;
71046;SDS011;58703;48.978;8.982;2024-03-02T02:47:41;17.00;;;9.88;;
71046;SDS011;58703;48.978;8.982;2024-03-02T02:50:08;18.02;;;10.15;;
71046;SDS011;58703;48.978;8.982;2024-03-02T02:52:37;20.88;;;10.48;;
71046;SDS011;58703;48.978;8.982;2024-03-02T02:55:07;19.55;;;10.35;;
71046;SDS011;58703;48.978;8.982;2024-03-02T02:57:40;15.93;;;10.03;;
71046;SDS011;58703;48.978;8.982;2024-03-02T03:00:15;15.82;;;9.63;;
71046;SDS011;58703;48.978;8.982;2024-03-02T03:02:47;16.55;;;10.23;;
71046;SDS011;58703;48.978;8.982;2024-03-02T03:05:14;16.95;;;9.90;;
71046;SDS011;58703;48.978;8.982;2024-03-02T03:07:42;18.85;;;10.90;;
71046;SDS011;58703;48.978;8.982;2024-03-02T03:10:11;21.47;;;11.33;;
71046;SDS011;58703;48.978;8.982;2024-03-02T03:12:37;18.85;;;10.35;;
71046;SDS011;58703;48.978;8.982;2024-03-02T03:15:05;18.83;;;11.07;;
71046;SDS011;58703;48.978;8.982;2024-03-02T03:17:32;18.80;;;10.00;;
71046;SDS011;58703;48.978;8.982;2024-03-02T03:19:59;19.13;;;10.43;;
71046;SDS011;58703;48.978;8.982;2024-03-02T03:22:28;20.92;;;10.88;;
71046;SDS011;58703;48.978;8.982;2024-03-02T03:24:55;19.00;;;10.80;;
71046;SDS011;58703;48.978;8.982;2024-03-02T03:27:20;18.95;;;11.25;;
71046;SDS011;58703;48.978;8.982;2024-03-02T03:29:47;16.40;;;10.27;;
71046;SDS011;58703;48.978;8.982;2024-03-02T03:32:14;18.88;;;10.68;;
71046;SDS011;58703;48.978;8.982;2024-03-02T03:34:41;18.60;;;9.82;;
71046;SDS011;58703;48.978;8.982;2024-03-02T03:37:08;17.80;;;10.20;;
71046;SDS011;58703;48.978;8.982;2024-03-02T03:39:36;18.60;;;10.00;;
71046;SDS011;58703;48.978;8.982;2024-03-02T03:42:03;16.58;;;10.68;;
71046;SDS011;58703;48.978;8.982;2024-03-02T03:44:29;17.65;;;10.23;;
71046;SDS011;58703;48.978;8.982;2024-03-02T03:46:55;19.50;;;11.23;;
71046;SDS011;58703;48.978;8.982;2024-03-02T03:49:22;19.45;;;10.52;;
71046;SDS011;58703;48.978;8.982;2024-03-02T03:51:49;19.87;;;11.40;;
71046;SDS011;58703;48.978;8.982;2024-03-02T03:54:16;17.17;;;10.70;;
71046;SDS011;58703;48.978;8.982;2024-03-02T03:56:43;21.35;;;10.57;;
71046;SDS011;58703;48.978;8.982;2024-03-02T03:59:10;19.15;;;11.07;;
71046;SDS011;58703;48.978;8.982;2024-03-02T04:01:36;22.35;;;12.20;;
71046;SDS011;58703;48.978;8.982;2024-03-02T04:04:03;20.52;;;11.88;;
71046;SDS011;58703;48.978;8.982;2024-03-02T04:06:30;21.35;;;11.63;;
71046;SDS011;58703;48.978;8.982;2024-03-02T04:08:57;19.13;;;11.32;;
71046;SDS011;58703;48.978;8.982;2024-03-02T04:11:23;17.98;;;11.05;;
71046;SDS011;58703;48.978;8.982;2024-03-02T04:13:50;18.40;;;10.57;;
71046;SDS011;58703;48.978;8.982;2024-03-02T04:16:17;19.25;;;11.00;;
71046;SDS011;58703;48.978;8.982;2024-03-02T04:18:43;20.20;;;11.75;;
71046;SDS011;58703;48.978;8.982;2024-03-02T04:21:08;21.73;;;13.30;;
71046;SDS011;58703;48.978;8.982;2024-03-02T04:23:35;22.27;;;12.27;;
71046;SDS011;58703;48.978;8.982;2024-03-02T04:26:02;21.15;;;12.93;;
71046;SDS011;58703;48.978;8.982;2024-03-02T04:28:29;22.00;;;11.67;;
71046;SDS011;58703;48.978;8.982;2024-03-02T04:30:57;21.45;;;12.40;;
71046;SDS011;58703;48.978;8.982;2024-03-02T04:33:25;21.20;;;12.55;;
71046;SDS011;58703;48.978;8.982;2024-03-02T04:35:52;22.35;;;12.40;;
71046;SDS011;58703;48.978;8.982;2024-03-02T04:38:19;23.20;;;12.30;;
71046;SDS011;58703;48.978;8.982;2024-03-02T04:40:46;21.57;;;12.23;;
71046;SDS011;58703;48.978;8.982;2024-03-02T04:43:13;20.13;;;11.60;;
71046;SDS011;58703;48.978;8.982;2024-03-02T04:45:43;20.92;;;12.57;;
71046;SDS011;58703;48.978;8.982;2024-03-02T04:48:08;21.77;;;12.43;;
71046;SDS011;58703;48.978;8.982;2024-03-02T04:50:35;24.23;;;13.05;;
71046;SDS011;58703;48.978;8.982;2024-03-02T04:53:02;22.90;;;12.60;;
71046;SDS011;58703;48.978;8.982;2024-03-02T04:55:29;18.85;;;12.25;;
71046;SDS011;58703;48.978;8.982;2024-03-02T04:57:55;27.23;;;13.27;;
71046;SDS011;58703;48.978;8.982;2024-03-02T05:00:22;23.52;;;13.20;;
71046;SDS011;58703;48.978;8.982;2024-03-02T05:02:48;29.13;;;16.35;;
71046;SDS011;58703;48.978;8.982;2024-03-02T05:05:16;23.45;;;14.15;;
71046;SDS011;58703;48.978;8.982;2024-03-02T05:07:49;22.25;;;12.57;;
71046;SDS011;58703;48.978;8.982;2024-03-02T05:10:15;21.92;;;13.10;;
71046;SDS011;58703;48.978;8.982;2024-03-02T05:12:43;26.50;;;13.73;;
71046;SDS011;58703;48.978;8.982;2024-03-02T05:15:15;22.50;;;13.20;;
71046;SDS011;58703;48.978;8.982;2024-03-02T05:17:43;21.35;;;12.45;;
71046;SDS011;58703;48.978;8.982;2024-03-02T05:20:11;22.50;;;12.63;;
71046;SDS011;58703;48.978;8.982;2024-03-02T05:22:38;24.02;;;13.00;;
71046;SDS011;58703;48.978;8.982;2024-03-02T05:25:05;25.58;;;14.45;;
71046;SDS011;58703;48.978;8.982;2024-03-02T05:27:36;25.08;;;13.77;;
71046;SDS011;58703;48.978;8.982;2024-03-02T05:30:03;25.58;;;14.73;;
71046;SDS011;58703;48.978;8.982;2024-03-02T05:32:33;26.08;;;14.93;;
71046;SDS011;58703;48.978;8.982;2024-03-02T05:34:59;23.08;;;13.27;;
71046;SDS011;58703;48.978;8.982;2024-03-02T05:37:26;26.73;;;13.82;;
71046;SDS011;58703;48.978;8.982;2024-03-02T05:39:55;26.38;;;13.75;;
71046;SDS011;58703;48.978;8.982;2024-03-02T05:42:21;23.58;;;13.23;;
71046;SDS011;58703;48.978;8.982;2024-03-02T05:44:49;29.90;;;14.55;;
71046;SDS011;58703;48.978;8.982;2024-03-02T05:47:16;23.27;;;13.18;;
71046;SDS011;58703;48.978;8.982;2024-03-02T05:49:43;25.30;;;13.80;;
71046;SDS011;58703;48.978;8.982;2024-03-02T05:52:10;26.92;;;13.68;;
71046;SDS011;58703;48.978;8.982;2024-03-02T05:54:38;27.38;;;14.65;;
71046;SDS011;58703;48.978;8.982;2024-03-02T05:57:05;25.55;;;13.68;;
71046;SDS011;58703;48.978;8.982;2024-03-02T06:00:06;27.85;;;14.30;;
71046;SDS011;58703;48.978;8.982;2024-03-02T06:02:33;24.25;;;12.63;;
71046;SDS011;58703;48.978;8.982;2024-03-02T06:05:02;23.70;;;13.13;;
71046;SDS011;58703;48.978;8.982;2024-03-02T06:07:30;25.05;;;12.45;;
71046;SDS011;58703;48.978;8.982;2024-03-02T06:09:57;25.52;;;13.55;;
71046;SDS011;58703;48.978;8.982;2024-03-02T06:12:23;24.52;;;12.95;;
71046;SDS011;58703;48.978;8.982;2024-03-02T06:14:51;25.02;;;13.65;;
71046;SDS011;58703;48.978;8.982;2024-03-02T06:17:18;21.00;;;11.80;;
71046;SDS011;58703;48.978;8.982;2024-03-02T06:19:45;28.45;;;14.65;;
71046;SDS011;58703;48.978;8.982;2024-03-02T06:22:13;27.38;;;14.65;;
71046;SDS011;58703;48.978;8.982;2024-03-02T06:24:38;20.43;;;11.20;;
71046;SDS011;58703;48.978;8.982;2024-03-02T06:27:05;26.25;;;14.00;;
71046;SDS011;58703;48.978;8.982;2024-03-02T06:29:35;28.38;;;13.18;;
71046;SDS011;58703;48.978;8.982;2024-03-02T06:32:02;23.48;;;13.75;;
71046;SDS011;58703;48.978;8.982;2024-03-02T06:34:28;27.70;;;14.65;;
71046;SDS011;58703;48.978;8.982;2024-03-02T06:36:53;29.05;;;15.45;;
71046;SDS011;58703;48.978;8.982;2024-03-02T06:39:22;30.70;;;16.40;;
71046;SDS011;58703;48.978;8.982;2024-03-02T06:41:48;32.28;;;14.90;;
71046;SDS011;58703;48.978;8.982;2024-03-02T06:44:17;28.70;;;15.40;;
71046;SDS011;58703;48.978;8.982;2024-03-02T06:46:43;30.23;;;14.40;;
71046;SDS011;58703;48.978;8.982;2024-03-02T06:49:10;28.00;;;16.30;;
71046;SDS011;58703;48.978;8.982;2024-03-02T06:51:36;29.17;;;16.50;;
71046;SDS011;58703;48.978;8.982;2024-03-02T06:54:04;28.42;;;15.10;;
71046;SDS011;58703;48.978;8.982;2024-03-02T06:56:32;26.33;;;15.77;;
71046;SDS011;58703;48.978;8.982;2024-03-02T06:58:59;28.30;;;16.00;;
71046;SDS011;58703;48.978;8.982;2024-03-02T07:01:25;30.87;;;15.10;;
71046;SDS011;58703;48.978;8.982;2024-03-02T07:03:51;26.25;;;15.10;;
71046;SDS011;58703;48.978;8.982;2024-03-02T07:06:18;28.13;;;14.93;;
71046;SDS011;58703;48.978;8.982;2024-03-02T07:08:44;27.48;;;15.90;;
71046;SDS011;58703;48.978;8.982;2024-03-02T07:11:10;23.38;;;13.25;;
71046;SDS011;58703;48.978;8.982;2024-03-02T07:13:38;29.30;;;15.13;;
71046;SDS011;58703;48.978;8.982;2024-03-02T07:16:04;27.75;;;14.65;;
71046;SDS011;58703;48.978;8.982;2024-03-02T07:18:51;27.50;;;15.20;;
71046;SDS011;58703;48.978;8.982;2024-03-02T07:21:20;26.17;;;14.68;;
71046;SDS011;58703;48.978;8.982;2024-03-02T07:23:48;26.70;;;14.73;;
71046;SDS011;58703;48.978;8.982;2024-03-02T07:26:18;24.30;;;13.30;;
71046;SDS011;58703;48.978;8.982;2024-03-02T07:28:46;26.75;;;12.60;;
71046;SDS011;58703;48.978;8.982;2024-03-02T07:31:13;29.40;;;14.52;;
71046;SDS011;58703;48.978;8.982;2024-03-02T07:33:39;25.03;;;13.43;;
71046;SDS011;58703;48.978;8.982;2024-03-02T07:36:05;22.63;;;13.13;;
71046;SDS011;58703;48.978;8.982;2024-03-02T07:38:32;22.77;;;12.82;;
71046;SDS011;58703;48.978;8.982;2024-03-02T07:41:01;23.90;;;13.00;;
71046;SDS011;58703;48.978;8.982;2024-03-02T07:43:29;24.15;;;12.50;;
71046;SDS011;58703;48.978;8.982;2024-03-02T07:45:58;24.38;;;12.63;;
71046;SDS011;58703;48.978;8.982;2024-03-02T07:48:25;24.57;;;12.83;;
71046;SDS011;58703;48.978;8.982;2024-03-02T07:50:51;22.95;;;13.20;;
71046;SDS011;58703;48.978;8.982;2024-03-02T07:53:17;20.95;;;11.85;;
71046;SDS011;58703;48.978;8.982;2024-03-02T07:55:44;27.38;;;13.52;;
71046;SDS011;58703;48.978;8.982;2024-03-02T07:58:11;23.73;;;11.47;;
71046;SDS011;58703;48.978;8.982;2024-03-02T08:00:39;22.60;;;11.95;;
71046;SDS011;58703;48.978;8.982;2024-03-02T08:03:08;18.20;;;10.32;;
71046;SDS011;58703;48.978;8.982;2024-03-02T08:05:37;23.80;;;12.20;;
71046;SDS011;58703;48.978;8.982;2024-03-02T08:08:04;18.20;;;9.30;;
71046;SDS011;58703;48.978;8.982;2024-03-02T08:10:32;22.35;;;11.98;;
71046;SDS011;58703;48.978;8.982;2024-03-02T08:13:00;22.23;;;12.13;;
71046;SDS011;58703;48.978;8.982;2024-03-02T08:15:27;21.70;;;11.02;;
71046;SDS011;58703;48.978;8.982;2024-03-02T08:17:54;19.10;;;11.43;;
71046;SDS011;58703;48.978;8.982;2024-03-02T08:20:21;19.60;;;10.77;;
71046;SDS011;58703;48.978;8.982;2024-03-02T08:22:48;21.05;;;11.95;;
71046;SDS011;58703;48.978;8.982;2024-03-02T08:25:15;15.02;;;8.02;;
71046;SDS011;58703;48.978;8.982;2024-03-02T08:27:42;20.13;;;10.85;;
71046;SDS011;58703;48.978;8.982;2024-03-02T08:30:09;18.43;;;10.77;;
71046;SDS011;58703;48.978;8.982;2024-03-02T08:32:37;18.38;;;10.63;;
71046;SDS011;58703;48.978;8.982;2024-03-02T08:35:04;18.50;;;10.82;;
71046;SDS011;58703;48.978;8.982;2024-03-02T08:37:33;17.63;;;11.00;;
71046;SDS011;58703;48.978;8.982;2024-03-02T08:39:59;16.83;;;10.38;;
71046;SDS011;58703;48.978;8.982;2024-03-02T08:42:26;15.32;;;9.82;;
71046;SDS011;58703;48.978;8.982;2024-03-02T08:44:53;15.63;;;9.77;;
71046;SDS011;58703;48.978;8.982;2024-03-02T08:47:20;14.45;;;9.23;;
71046;SDS011;58703;48.978;8.982;2024-03-02T08:49:47;13.50;;;8.35;;
71046;SDS011;58703;48.978;8.982;2024-03-02T08:52:13;19.38;;;9.10;;
71046;SDS011;58703;48.978;8.982;2024-03-02T08:54:39;16.70;;;9.32;;
71046;SDS011;58703;48.978;8.982;2024-03-02T08:57:06;14.30;;;8.70;;
71046;SDS011;58703;48.978;8.982;2024-03-02T08:59:32;12.85;;;8.57;;
71046;SDS011;58703;48.978;8.982;2024-03-02T09:01:59;14.20;;;7.87;;
71046;SDS011;58703;48.978;8.982;2024-03-02T09:04:27;12.25;;;6.55;;
71046;SDS011;58703;48.978;8.982;2024-03-02T09:06:53;13.45;;;7.57;;
71046;SDS011;58703;48.978;8.982;2024-03-02T09:09:19;13.83;;;8.10;;
71046;SDS011;58703;48.978;8.982;2024-03-02T09:11:46;12.47;;;7.57;;
71046;SDS011;58703;48.978;8.982;2024-03-02T09:14:13;12.35;;;7.72;;
71046;SDS011;58703;48.978;8.982;2024-03-02T09:16:40;11.05;;;7.43;;
71046;SDS011;58703;48.978;8.982;2024-03-02T09:19:07;15.50;;;7.50;;
71046;SDS011;58703;48.978;8.982;2024-03-02T09:21:35;11.13;;;6.65;;
71046;SDS011;58703;48.978;8.982;2024-03-02T09:24:02;10.68;;;7.18;;
71046;SDS011;58703;48.978;8.982;2024-03-02T09:26:29;10.45;;;7.53;;
71046;SDS011;58703;48.978;8.982;2024-03-02T09:28:57;11.85;;;7.20;;
71046;SDS011;58703;48.978;8.982;2024-03-02T09:31:24;9.63;;;7.33;;
71046;SDS011;58703;48.978;8.982;2024-03-02T09:33:52;9.70;;;7.05;;
71046;SDS011;58703;48.978;8.982;2024-03-02T09:36:21;11.63;;;7.22;;
71046;SDS011;58703;48.978;8.982;2024-03-02T09:38:47;10.40;;;6.63;;
71046;SDS011;58703;48.978;8.982;2024-03-02T09:41:14;10.80;;;6.40;;
71046;SDS011;58703;48.978;8.982;2024-03-02T09:43:41;9.80;;;6.35;;
71046;SDS011;58703;48.978;8.982;2024-03-02T09:46:11;10.15;;;6.88;;
71046;SDS011;58703;48.978;8.982;2024-03-02T09:48:38;8.13;;;5.70;;
71046;SDS011;58703;48.978;8.982;2024-03-02T09:51:05;7.45;;;5.80;;
71046;SDS011;58703;48.978;8.982;2024-03-02T09:53:34;8.68;;;5.55;;
71046;SDS011;58703;48.978;8.982;2024-03-02T09:56:01;7.68;;;5.45;;
71046;SDS011;58703;48.978;8.982;2024-03-02T09:58:28;8.52;;;5.97;;
71046;SDS011;58703;48.978;8.982;2024-03-02T10:00:56;7.63;;;5.00;;
71046;SDS011;58703;48.978;8.982;2024-03-02T10:03:23;7.43;;;4.68;;
71046;SDS011;58703;48.978;8.982;2024-03-02T10:05:54;11.13;;;5.53;;
71046;SDS011;58703;48.978;8.982;2024-03-02T10:08:20;7.05;;;5.18;;
71046;SDS011;58703;48.978;8.982;2024-03-02T10:10:47;6.35;;;4.35;;
71046;SDS011;58703;48.978;8.982;2024-03-02T10:13:14;6.33;;;4.60;;
71046;SDS011;58703;48.978;8.982;2024-03-02T10:15:40;7.82;;;4.40;;
71046;SDS011;58703;48.978;8.982;2024-03-02T10:18:11;7.85;;;4.45;;
71046;SDS011;58703;48.978;8.982;2024-03-02T10:20:39;6.53;;;4.10;;
71046;SDS011;58703;48.978;8.982;2024-03-02T10:23:15;5.38;;;3.78;;
71046;SDS011;58703;48.978;8.982;2024-03-02T10:25:44;5.90;;;4.00;;
71046;SDS011;58703;48.978;8.982;2024-03-02T10:28:12;7.68;;;4.07;;
71046;SDS011;58703;48.978;8.982;2024-03-02T10:30:39;7.47;;;5.00;;
71046;SDS011;58703;48.978;8.982;2024-03-02T10:33:05;5.22;;;3.75;;
71046;SDS011;58703;48.978;8.982;2024-03-02T10:35:32;9.25;;;3.47;;
71046;SDS011;58703;48.978;8.982;2024-03-02T10:38:03;5.73;;;4.00;;
71046;SDS011;58703;48.978;8.982;2024-03-02T10:40:31;9.00;;;4.57;;
71046;SDS011;58703;48.978;8.982;2024-03-02T10:42:59;6.25;;;4.25;;
71046;SDS011;58703;48.978;8.982;2024-03-02T10:45:29;6.75;;;3.85;;
71046;SDS011;58703;48.978;8.982;2024-03-02T10:47:56;5.65;;;4.15;;
71046;SDS011;58703;48.978;8.982;2024-03-02T10:50:24;5.90;;;3.70;;
71046;SDS011;58703;48.978;8.982;2024-03-02T10:52:51;6.13;;;3.17;;
71046;SDS011;58703;48.978;8.982;2024-03-02T10:55:19;5.63;;;3.38;;
71046;SDS011;58703;48.978;8.982;2024-03-02T10:57:55;7.00;;;3.97;;
71046;SDS011;58703;48.978;8.982;2024-03-02T11:00:24;10.88;;;3.95;;
71046;SDS011;58703;48.978;8.982;2024-03-02T11:03:14;6.13;;;3.67;;
71046;SDS011;58703;48.978;8.982;2024-03-02T11:05:43;4.10;;;2.80;;
71046;SDS011;58703;48.978;8.982;2024-03-02T11:08:16;4.70;;;3.22;;
71046;SDS011;58703;48.978;8.982;2024-03-02T11:10:51;4.82;;;3.30;;
71046;SDS011;58703;48.978;8.982;2024-03-02T11:13:34;5.03;;;2.60;;
71046;SDS011;58703;48.978;8.982;2024-03-02T11:16:05;4.10;;;3.33;;
71046;SDS011;58703;48.978;8.982;2024-03-02T11:18:36;5.47;;;3.35;;
71046;SDS011;58703;48.978;8.982;2024-03-02T11:21:02;4.55;;;3.10;;
71046;SDS011;58703;48.978;8.982;2024-03-02T11:23:32;6.35;;;2.92;;
71046;SDS011;58703;48.978;8.982;2024-03-02T11:28:46;3.40;;;2.40;;
71046;SDS011;58703;48.978;8.982;2024-03-02T11:31:13;4.38;;;2.85;;
71046;SDS011;58703;48.978;8.982;2024-03-02T11:33:39;3.45;;;2.55;;
71046;SDS011;58703;48.978;8.982;2024-03-02T11:36:08;3.20;;;2.28;;
71046;SDS011;58703;48.978;8.982;2024-03-02T11:38:36;3.22;;;2.50;;
71046;SDS011;58703;48.978;8.982;2024-03-02T11:41:05;4.67;;;2.40;;
71046;SDS011;58703;48.978;8.982;2024-03-02T11:43:38;2.75;;;2.08;;
71046;SDS011;58703;48.978;8.982;2024-03-02T11:46:05;2.47;;;1.80;;
71046;SDS011;58703;48.978;8.982;2024-03-02T11:48:36;2.95;;;1.98;;
71046;SDS011;58703;48.978;8.982;2024-03-02T11:51:05;2.83;;;2.03;;
71046;SDS011;58703;48.978;8.982;2024-03-02T11:53:32;2.47;;;1.63;;
71046;SDS011;58703;48.978;8.982;2024-03-02T11:56:01;2.10;;;1.90;;
71046;SDS011;58703;48.978;8.982;2024-03-02T11:58:27;1.88;;;1.40;;
71046;SDS011;58703;48.978;8.982;2024-03-02T12:00:54;2.42;;;1.40;;
71046;SDS011;58703;48.978;8.982;2024-03-02T12:03:25;1.20;;;1.05;;
71046;SDS011;58703;48.978;8.982;2024-03-02T12:05:54;2.63;;;1.47;;
71046;SDS011;58703;48.978;8.982;2024-03-02T12:08:21;2.53;;;1.05;;
71046;SDS011;58703;48.978;8.982;2024-03-02T12:10:56;1.65;;;1.17;;
71046;SDS011;58703;48.978;8.982;2024-03-02T12:13:25;1.60;;;1.10;;
71046;SDS011;58703;48.978;8.982;2024-03-02T12:15:54;1.73;;;1.13;;
71046;SDS011;58703;48.978;8.982;2024-03-02T12:18:22;1.90;;;1.50;;
71046;SDS011;58703;48.978;8.982;2024-03-02T12:20:49;1.73;;;1.33;;
71046;SDS011;58703;48.978;8.982;2024-03-02T12:23:20;2.90;;;1.50;;
71046;SDS011;58703;48.978;8.982;2024-03-02T12:25:46;2.13;;;1.52;;
71046;SDS011;58703;48.978;8.982;2024-03-02T12:28:15;2.22;;;1.48;;
71046;SDS011;58703;48.978;8.982;2024-03-02T12:30:42;3.87;;;1.20;;
71046;SDS011;58703;48.978;8.982;2024-03-02T12:33:11;1.38;;;0.90;;
71046;SDS011;58703;48.978;8.982;2024-03-02T12:35:38;2.03;;;1.58;;
71046;SDS011;58703;48.978;8.982;2024-03-02T12:38:06;1.17;;;0.90;;
71046;SDS011;58703;48.978;8.982;2024-03-02T12:40:32;1.52;;;1.23;;
71046;SDS011;58703;48.978;8.982;2024-03-02T12:42:59;1.87;;;1.17;;
71046;SDS011;58703;48.978;8.982;2024-03-02T12:45:24;1.90;;;1.08;;
71046;SDS011;58703;48.978;8.982;2024-03-02T12:47:52;2.03;;;0.87;;
71046;SDS011;58703;48.978;8.982;2024-03-02T12:50:18;0.60;;;0.60;;
71046;SDS011;58703;48.978;8.982;2024-03-02T12:52:55;2.38;;;0.93;;
71046;SDS011;58703;48.978;8.982;2024-03-02T12:55:21;2.13;;;0.82;;
71046;SDS011;58703;48.978;8.982;2024-03-02T12:57:49;1.13;;;0.60;;
71046;SDS011;58703;48.978;8.982;2024-03-02T13:00:18;0.70;;;0.70;;
71046;SDS011;58703;48.978;8.982;2024-03-02T13:02:46;0.95;;;0.90;;
71046;SDS011;58703;48.978;8.982;2024-03-02T13:05:14;2.28;;;0.95;;
71046;SDS011;58703;48.978;8.982;2024-03-02T13:07:41;0.70;;;0.70;;
71046;SDS011;58703;48.978;8.982;2024-03-02T13:10:07;0.57;;;0.53;;
71046;SDS011;58703;48.978;8.982;2024-03-02T13:12:35;1.50;;;0.90;;
71046;SDS011;58703;48.978;8.982;2024-03-02T13:15:03;1.15;;;0.70;;
71046;SDS011;58703;48.978;8.982;2024-03-02T13:17:34;0.95;;;0.63;;
71046;SDS011;58703;48.978;8.982;2024-03-02T13:20:02;0.95;;;0.40;;
71046;SDS011;58703;48.978;8.982;2024-03-02T13:22:30;0.90;;;0.53;;
71046;SDS011;58703;48.978;8.982;2024-03-02T13:24:57;0.82;;;0.73;;
71046;SDS011;58703;48.978;8.982;2024-03-02T13:27:26;1.92;;;0.85;;
71046;SDS011;58703;48.978;8.982;2024-03-02T13:29:55;0.73;;;0.50;;
71046;SDS011;58703;48.978;8.982;2024-03-02T13:32:22;0.77;;;0.57;;
71046;SDS011;58703;48.978;8.982;2024-03-02T13:34:51;2.60;;;0.80;;
71046;SDS011;58703;48.978;8.982;2024-03-02T13:37:20;0.90;;;0.60;;
71046;SDS011;58703;48.978;8.982;2024-03-02T13:39:56;1.90;;;0.60;;
71046;SDS011;58703;48.978;8.982;2024-03-02T13:42:24;1.10;;;0.68;;
71046;SDS011;58703;48.978;8.982;2024-03-02T13:44:52;0.75;;;0.75;;
71046;SDS011;58703;48.978;8.982;2024-03-02T13:47:17;0.40;;;0.40;;
71046;SDS011;58703;48.978;8.982;2024-03-02T13:49:43;0.43;;;0.40;;
71046;SDS011;58703;48.978;8.982;2024-03-02T13:52:12;1.25;;;0.55;;
71046;SDS011;58703;48.978;8.982;2024-03-02T13:54:47;0.77;;;0.50;;
71046;SDS011;58703;48.978;8.982;2024-03-02T13:57:14;0.50;;;0.45;;
71046;SDS011;58703;48.978;8.982;2024-03-02T13:59:42;1.25;;;0.60;;
71046;SDS011;58703;48.978;8.982;2024-03-02T14:02:10;0.70;;;0.50;;
71046;SDS011;58703;48.978;8.982;2024-03-02T14:04:38;0.93;;;0.50;;
71046;SDS011;58703;48.978;8.982;2024-03-02T14:07:06;0.40;;;0.37;;
71046;SDS011;58703;48.978;8.982;2024-03-02T14:09:34;1.10;;;0.40;;
71046;SDS011;58703;48.978;8.982;2024-03-02T14:12:10;0.52;;;0.25;;
71046;SDS011;58703;48.978;8.982;2024-03-02T14:14:36;0.57;;;0.38;;
71046;SDS011;58703;48.978;8.982;2024-03-02T14:17:03;0.35;;;0.30;;
71046;SDS011;58703;48.978;8.982;2024-03-02T14:19:33;1.23;;;0.53;;
71046;SDS011;58703;48.978;8.982;2024-03-02T14:21:59;2.80;;;0.70;;
71046;SDS011;58703;48.978;8.982;2024-03-02T14:24:24;0.90;;;0.50;;
71046;SDS011;58703;48.978;8.982;2024-03-02T14:26:53;0.60;;;0.60;;
71046;SDS011;58703;48.978;8.982;2024-03-02T14:29:18;0.95;;;0.50;;
71046;SDS011;58703;48.978;8.982;2024-03-02T14:31:44;0.98;;;0.63;;
71046;SDS011;58703;48.978;8.982;2024-03-02T14:34:14;1.50;;;0.50;;
71046;SDS011;58703;48.978;8.982;2024-03-02T14:36:44;0.50;;;0.47;;
71046;SDS011;58703;48.978;8.982;2024-03-02T14:39:11;1.50;;;0.50;;